sensor_id;sensor_type;location;lat;lon;timestamp;P1;durP1;ratioP1;P2;durP2;ratioP2
3747;SDS011;1889;50.058;8.688;2022-11-10T00:00:45;3.62;;;2.33;;
3747;SDS011;1889;50.058;8.688;2022-11-10T00:03:15;3.60;;;2.02;;
3747;SDS011;1889;50.058;8.688;2022-11-10T00:05:44;5.10;;;1.98;;
3747;SDS011;1889;50.058;8.688;2022-11-10T00:08:13;2.05;;;1.85;;
3747;SDS011;1889;50.058;8.688;2022-11-10T00:10:43;2.72;;;2.22;;
3747;SDS011;1889;50.058;8.688;2022-11-10T00:13:32;2.58;;;1.72;;
3747;SDS011;1889;50.058;8.688;2022-11-10T00:16:39;3.92;;;2.15;;
3747;SDS011;1889;50.058;8.688;2022-11-10T00:19:27;2.33;;;2.02;;
3747;SDS011;1889;50.058;8.688;2022-11-10T00:21:56;2.87;;;2.15;;
3747;SDS011;1889;50.058;8.688;2022-11-10T00:24:27;2.87;;;1.82;;
3747;SDS011;1889;50.058;8.688;2022-11-10T00:26:56;5.12;;;2.00;;
3747;SDS011;1889;50.058;8.688;2022-11-10T00:29:26;2.08;;;1.82;;
3747;SDS011;1889;50.058;8.688;2022-11-10T00:31:55;3.85;;;1.90;;
3747;SDS011;1889;50.058;8.688;2022-11-10T00:34:24;2.37;;;1.90;;
3747;SDS011;1889;50.058;8.688;2022-11-10T00:36:54;3.52;;;1.55;;
3747;SDS011;1889;50.058;8.688;2022-11-10T00:39:23;4.25;;;1.90;;
3747;SDS011;1889;50.058;8.688;2022-11-10T00:41:52;2.75;;;1.75;;
3747;SDS011;1889;50.058;8.688;2022-11-10T00:44:22;2.33;;;2.00;;
3747;SDS011;1889;50.058;8.688;2022-11-10T00:46:51;1.82;;;1.30;;
3747;SDS011;1889;50.058;8.688;2022-11-10T00:49:20;2.12;;;1.85;;
3747;SDS011;1889;50.058;8.688;2022-11-10T00:51:50;3.42;;;1.95;;
3747;SDS011;1889;50.058;8.688;2022-11-10T00:54:19;3.40;;;2.08;;
3747;SDS011;1889;50.058;8.688;2022-11-10T00:56:48;3.33;;;2.15;;
3747;SDS011;1889;50.058;8.688;2022-11-10T00:59:18;2.92;;;2.08;;
3747;SDS011;1889;50.058;8.688;2022-11-10T01:01:47;2.98;;;2.10;;
3747;SDS011;1889;50.058;8.688;2022-11-10T01:04:16;4.28;;;2.10;;
3747;SDS011;1889;50.058;8.688;2022-11-10T01:06:46;2.90;;;2.33;;
3747;SDS011;1889;50.058;8.688;2022-11-10T01:09:15;3.00;;;2.00;;
3747;SDS011;1889;50.058;8.688;2022-11-10T01:11:44;3.12;;;2.80;;
3747;SDS011;1889;50.058;8.688;2022-11-10T01:14:14;2.92;;;2.62;;
3747;SDS011;1889;50.058;8.688;2022-11-10T01:16:43;4.35;;;2.70;;
3747;SDS011;1889;50.058;8.688;2022-11-10T01:19:12;4.53;;;2.90;;
3747;SDS011;1889;50.058;8.688;2022-11-10T01:21:42;5.97;;;2.72;;
3747;SDS011;1889;50.058;8.688;2022-11-10T01:24:11;2.60;;;2.00;;
3747;SDS011;1889;50.058;8.688;2022-11-10T01:26:40;3.65;;;2.05;;
3747;SDS011;1889;50.058;8.688;2022-11-10T01:29:10;3.77;;;2.50;;
3747;SDS011;1889;50.058;8.688;2022-11-10T01:31:39;5.40;;;2.15;;
3747;SDS011;1889;50.058;8.688;2022-11-10T01:34:08;2.58;;;1.60;;
3747;SDS011;1889;50.058;8.688;2022-11-10T01:36:38;2.67;;;1.90;;
3747;SDS011;1889;50.058;8.688;2022-11-10T01:39:07;2.87;;;1.90;;
3747;SDS011;1889;50.058;8.688;2022-11-10T01:41:36;3.50;;;1.62;;
3747;SDS011;1889;50.058;8.688;2022-11-10T01:44:19;2.85;;;1.70;;
3747;SDS011;1889;50.058;8.688;2022-11-10T01:46:50;2.60;;;1.77;;
3747;SDS011;1889;50.058;8.688;2022-11-10T01:49:21;3.08;;;1.77;;
3747;SDS011;1889;50.058;8.688;2022-11-10T01:51:59;2.17;;;1.87;;
3747;SDS011;1889;50.058;8.688;2022-11-10T01:54:31;1.70;;;1.60;;
3747;SDS011;1889;50.058;8.688;2022-11-10T01:57:08;2.10;;;1.57;;
3747;SDS011;1889;50.058;8.688;2022-11-10T01:59:41;2.47;;;2.10;;
3747;SDS011;1889;50.058;8.688;2022-11-10T02:02:16;5.90;;;1.90;;
3747;SDS011;1889;50.058;8.688;2022-11-10T02:05:02;3.67;;;1.77;;
3747;SDS011;1889;50.058;8.688;2022-11-10T02:07:32;3.50;;;1.87;;
3747;SDS011;1889;50.058;8.688;2022-11-10T02:10:02;1.82;;;1.60;;
3747;SDS011;1889;50.058;8.688;2022-11-10T02:12:32;6.20;;;1.80;;
3747;SDS011;1889;50.058;8.688;2022-11-10T02:15:04;2.05;;;1.67;;
3747;SDS011;1889;50.058;8.688;2022-11-10T02:17:54;2.05;;;1.82;;
3747;SDS011;1889;50.058;8.688;2022-11-10T02:20:23;3.40;;;1.47;;
3747;SDS011;1889;50.058;8.688;2022-11-10T02:22:53;2.35;;;1.70;;
3747;SDS011;1889;50.058;8.688;2022-11-10T02:25:22;4.62;;;1.55;;
3747;SDS011;1889;50.058;8.688;2022-11-10T02:27:54;3.35;;;1.70;;
3747;SDS011;1889;50.058;8.688;2022-11-10T02:30:24;1.87;;;1.70;;
3747;SDS011;1889;50.058;8.688;2022-11-10T02:32:53;4.25;;;1.87;;
3747;SDS011;1889;50.058;8.688;2022-11-10T02:35:23;3.70;;;1.55;;
3747;SDS011;1889;50.058;8.688;2022-11-10T02:37:52;2.25;;;1.80;;
3747;SDS011;1889;50.058;8.688;2022-11-10T02:40:21;2.15;;;1.82;;
3747;SDS011;1889;50.058;8.688;2022-11-10T02:42:51;4.17;;;1.67;;
3747;SDS011;1889;50.058;8.688;2022-11-10T02:45:20;5.75;;;1.75;;
3747;SDS011;1889;50.058;8.688;2022-11-10T02:47:49;3.27;;;1.30;;
3747;SDS011;1889;50.058;8.688;2022-11-10T02:50:19;1.67;;;1.40;;
3747;SDS011;1889;50.058;8.688;2022-11-10T02:52:48;3.12;;;1.80;;
3747;SDS011;1889;50.058;8.688;2022-11-10T02:55:17;2.62;;;2.00;;
3747;SDS011;1889;50.058;8.688;2022-11-10T02:57:47;3.45;;;1.82;;
3747;SDS011;1889;50.058;8.688;2022-11-10T03:00:16;1.95;;;1.70;;
3747;SDS011;1889;50.058;8.688;2022-11-10T03:02:46;1.70;;;1.60;;
3747;SDS011;1889;50.058;8.688;2022-11-10T03:05:16;2.00;;;1.80;;
3747;SDS011;1889;50.058;8.688;2022-11-10T03:07:50;1.55;;;1.45;;
3747;SDS011;1889;50.058;8.688;2022-11-10T03:10:26;2.40;;;1.70;;
3747;SDS011;1889;50.058;8.688;2022-11-10T03:12:57;2.02;;;1.72;;
3747;SDS011;1889;50.058;8.688;2022-11-10T03:15:30;4.33;;;1.72;;
3747;SDS011;1889;50.058;8.688;2022-11-10T03:18:02;3.17;;;1.70;;
3747;SDS011;1889;50.058;8.688;2022-11-10T03:20:31;2.30;;;1.40;;
3747;SDS011;1889;50.058;8.688;2022-11-10T03:23:01;2.15;;;1.80;;
3747;SDS011;1889;50.058;8.688;2022-11-10T03:25:31;6.00;;;1.80;;
3747;SDS011;1889;50.058;8.688;2022-11-10T03:28:01;1.75;;;1.50;;
3747;SDS011;1889;50.058;8.688;2022-11-10T03:30:30;3.42;;;1.80;;
3747;SDS011;1889;50.058;8.688;2022-11-10T03:33:00;5.00;;;1.87;;
3747;SDS011;1889;50.058;8.688;2022-11-10T03:35:29;3.20;;;1.90;;
3747;SDS011;1889;50.058;8.688;2022-11-10T03:37:58;2.80;;;1.82;;
3747;SDS011;1889;50.058;8.688;2022-11-10T03:40:28;3.17;;;1.30;;
3747;SDS011;1889;50.058;8.688;2022-11-10T03:42:57;5.45;;;2.25;;
3747;SDS011;1889;50.058;8.688;2022-11-10T03:45:26;2.47;;;1.70;;
3747;SDS011;1889;50.058;8.688;2022-11-10T03:47:56;2.52;;;1.85;;
3747;SDS011;1889;50.058;8.688;2022-11-10T03:50:25;4.15;;;1.40;;
3747;SDS011;1889;50.058;8.688;2022-11-10T03:52:54;1.65;;;1.55;;
3747;SDS011;1889;50.058;8.688;2022-11-10T03:55:24;1.60;;;1.50;;
3747;SDS011;1889;50.058;8.688;2022-11-10T03:57:53;2.30;;;1.55;;
3747;SDS011;1889;50.058;8.688;2022-11-10T04:00:22;4.42;;;1.82;;
3747;SDS011;1889;50.058;8.688;2022-11-10T04:02:52;2.80;;;1.37;;
3747;SDS011;1889;50.058;8.688;2022-11-10T04:05:21;4.35;;;1.67;;
3747;SDS011;1889;50.058;8.688;2022-11-10T04:08:12;3.60;;;1.70;;
3747;SDS011;1889;50.058;8.688;2022-11-10T04:11:00;1.80;;;1.62;;
3747;SDS011;1889;50.058;8.688;2022-11-10T04:13:30;2.10;;;1.50;;
3747;SDS011;1889;50.058;8.688;2022-11-10T04:16:17;1.90;;;1.52;;
3747;SDS011;1889;50.058;8.688;2022-11-10T04:18:47;2.02;;;1.42;;
3747;SDS011;1889;50.058;8.688;2022-11-10T04:21:16;3.90;;;1.75;;
3747;SDS011;1889;50.058;8.688;2022-11-10T04:23:47;3.15;;;1.80;;
3747;SDS011;1889;50.058;8.688;2022-11-10T04:26:16;4.47;;;1.60;;
3747;SDS011;1889;50.058;8.688;2022-11-10T04:28:59;2.40;;;1.67;;
3747;SDS011;1889;50.058;8.688;2022-11-10T04:31:31;3.47;;;1.90;;
3747;SDS011;1889;50.058;8.688;2022-11-10T04:34:04;3.40;;;1.52;;
3747;SDS011;1889;50.058;8.688;2022-11-10T04:36:36;1.90;;;1.62;;
3747;SDS011;1889;50.058;8.688;2022-11-10T04:39:06;4.30;;;2.02;;
3747;SDS011;1889;50.058;8.688;2022-11-10T04:41:37;2.33;;;2.00;;
3747;SDS011;1889;50.058;8.688;2022-11-10T04:44:06;4.47;;;1.80;;
3747;SDS011;1889;50.058;8.688;2022-11-10T04:46:36;2.75;;;2.00;;
3747;SDS011;1889;50.058;8.688;2022-11-10T04:49:07;4.65;;;1.80;;
3747;SDS011;1889;50.058;8.688;2022-11-10T04:51:38;2.33;;;1.85;;
3747;SDS011;1889;50.058;8.688;2022-11-10T04:54:07;4.12;;;1.82;;
3747;SDS011;1889;50.058;8.688;2022-11-10T04:56:38;3.95;;;2.00;;
3747;SDS011;1889;50.058;8.688;2022-11-10T04:59:07;1.77;;;1.52;;
3747;SDS011;1889;50.058;8.688;2022-11-10T05:01:36;3.55;;;2.08;;
3747;SDS011;1889;50.058;8.688;2022-11-10T05:04:06;2.45;;;2.10;;
3747;SDS011;1889;50.058;8.688;2022-11-10T05:06:35;6.12;;;2.30;;
3747;SDS011;1889;50.058;8.688;2022-11-10T05:09:04;4.53;;;2.90;;
3747;SDS011;1889;50.058;8.688;2022-11-10T05:11:34;3.22;;;2.15;;
3747;SDS011;1889;50.058;8.688;2022-11-10T05:14:03;5.05;;;2.12;;
3747;SDS011;1889;50.058;8.688;2022-11-10T05:16:33;4.67;;;2.72;;
3747;SDS011;1889;50.058;8.688;2022-11-10T05:19:03;3.77;;;1.80;;
3747;SDS011;1889;50.058;8.688;2022-11-10T05:21:33;2.75;;;2.30;;
3747;SDS011;1889;50.058;8.688;2022-11-10T05:24:02;2.52;;;1.82;;
3747;SDS011;1889;50.058;8.688;2022-11-10T05:26:31;7.80;;;2.20;;
3747;SDS011;1889;50.058;8.688;2022-11-10T05:29:01;2.60;;;2.12;;
3747;SDS011;1889;50.058;8.688;2022-11-10T05:31:30;4.80;;;2.08;;
3747;SDS011;1889;50.058;8.688;2022-11-10T05:33:59;3.35;;;2.35;;
3747;SDS011;1889;50.058;8.688;2022-11-10T05:36:29;5.20;;;3.05;;
3747;SDS011;1889;50.058;8.688;2022-11-10T05:38:58;5.00;;;3.35;;
3747;SDS011;1889;50.058;8.688;2022-11-10T05:41:27;5.87;;;2.58;;
3747;SDS011;1889;50.058;8.688;2022-11-10T05:43:57;6.85;;;2.90;;
3747;SDS011;1889;50.058;8.688;2022-11-10T05:46:26;3.67;;;3.20;;
3747;SDS011;1889;50.058;8.688;2022-11-10T05:48:57;4.22;;;3.00;;
3747;SDS011;1889;50.058;8.688;2022-11-10T05:51:26;5.60;;;3.58;;
3747;SDS011;1889;50.058;8.688;2022-11-10T05:53:55;6.10;;;3.90;;
3747;SDS011;1889;50.058;8.688;2022-11-10T05:56:25;5.33;;;3.72;;
3747;SDS011;1889;50.058;8.688;2022-11-10T05:58:54;6.25;;;3.72;;
3747;SDS011;1889;50.058;8.688;2022-11-10T06:01:23;3.95;;;2.87;;
3747;SDS011;1889;50.058;8.688;2022-11-10T06:03:53;7.45;;;3.60;;
3747;SDS011;1889;50.058;8.688;2022-11-10T06:06:22;4.97;;;3.10;;
3747;SDS011;1889;50.058;8.688;2022-11-10T06:08:51;6.42;;;3.67;;
3747;SDS011;1889;50.058;8.688;2022-11-10T06:11:22;8.28;;;3.17;;
3747;SDS011;1889;50.058;8.688;2022-11-10T06:13:52;5.97;;;3.33;;
3747;SDS011;1889;50.058;8.688;2022-11-10T06:16:22;5.70;;;3.60;;
3747;SDS011;1889;50.058;8.688;2022-11-10T06:18:51;5.00;;;3.95;;
3747;SDS011;1889;50.058;8.688;2022-11-10T06:21:20;8.25;;;4.12;;
3747;SDS011;1889;50.058;8.688;2022-11-10T06:23:50;5.92;;;3.55;;
3747;SDS011;1889;50.058;8.688;2022-11-10T06:26:19;7.37;;;3.85;;
3747;SDS011;1889;50.058;8.688;2022-11-10T06:28:48;7.08;;;3.85;;
3747;SDS011;1889;50.058;8.688;2022-11-10T06:31:18;6.60;;;3.37;;
3747;SDS011;1889;50.058;8.688;2022-11-10T06:33:47;5.40;;;3.50;;
3747;SDS011;1889;50.058;8.688;2022-11-10T06:36:16;3.30;;;3.00;;
3747;SDS011;1889;50.058;8.688;2022-11-10T06:38:46;5.47;;;3.92;;
3747;SDS011;1889;50.058;8.688;2022-11-10T06:41:15;5.22;;;3.08;;
3747;SDS011;1889;50.058;8.688;2022-11-10T06:43:44;4.50;;;3.25;;
3747;SDS011;1889;50.058;8.688;2022-11-10T06:46:14;5.42;;;3.37;;
3747;SDS011;1889;50.058;8.688;2022-11-10T06:48:43;7.10;;;4.10;;
3747;SDS011;1889;50.058;8.688;2022-11-10T06:51:12;7.47;;;3.83;;
3747;SDS011;1889;50.058;8.688;2022-11-10T06:53:42;7.87;;;4.28;;
3747;SDS011;1889;50.058;8.688;2022-11-10T06:56:11;8.78;;;4.30;;
3747;SDS011;1889;50.058;8.688;2022-11-10T06:58:40;4.95;;;3.72;;
3747;SDS011;1889;50.058;8.688;2022-11-10T07:01:10;5.90;;;4.00;;
3747;SDS011;1889;50.058;8.688;2022-11-10T07:03:39;4.10;;;3.17;;
3747;SDS011;1889;50.058;8.688;2022-11-10T07:06:08;6.25;;;3.47;;
3747;SDS011;1889;50.058;8.688;2022-11-10T07:08:38;5.28;;;3.87;;
3747;SDS011;1889;50.058;8.688;2022-11-10T07:11:08;5.42;;;4.20;;
3747;SDS011;1889;50.058;8.688;2022-11-10T07:13:37;7.00;;;4.22;;
3747;SDS011;1889;50.058;8.688;2022-11-10T07:16:07;7.72;;;3.95;;
3747;SDS011;1889;50.058;8.688;2022-11-10T07:18:37;4.28;;;3.50;;
3747;SDS011;1889;50.058;8.688;2022-11-10T07:21:07;9.55;;;4.00;;
3747;SDS011;1889;50.058;8.688;2022-11-10T07:23:36;7.65;;;4.75;;
3747;SDS011;1889;50.058;8.688;2022-11-10T07:26:05;5.70;;;4.55;;
3747;SDS011;1889;50.058;8.688;2022-11-10T07:28:35;9.95;;;4.53;;
3747;SDS011;1889;50.058;8.688;2022-11-10T07:31:04;7.60;;;4.80;;
3747;SDS011;1889;50.058;8.688;2022-11-10T07:33:33;9.50;;;4.40;;
3747;SDS011;1889;50.058;8.688;2022-11-10T07:36:03;7.37;;;4.30;;
3747;SDS011;1889;50.058;8.688;2022-11-10T07:38:33;8.38;;;4.35;;
3747;SDS011;1889;50.058;8.688;2022-11-10T07:41:02;7.37;;;4.72;;
3747;SDS011;1889;50.058;8.688;2022-11-10T07:43:32;9.70;;;4.92;;
3747;SDS011;1889;50.058;8.688;2022-11-10T07:46:01;9.28;;;5.03;;
3747;SDS011;1889;50.058;8.688;2022-11-10T07:48:31;8.08;;;4.40;;
3747;SDS011;1889;50.058;8.688;2022-11-10T07:51:00;12.28;;;4.58;;
3747;SDS011;1889;50.058;8.688;2022-11-10T07:53:29;5.90;;;4.65;;
3747;SDS011;1889;50.058;8.688;2022-11-10T07:55:59;6.20;;;4.08;;
3747;SDS011;1889;50.058;8.688;2022-11-10T07:58:28;7.87;;;4.12;;
3747;SDS011;1889;50.058;8.688;2022-11-10T08:00:58;6.80;;;3.67;;
3747;SDS011;1889;50.058;8.688;2022-11-10T08:03:28;7.08;;;4.42;;
3747;SDS011;1889;50.058;8.688;2022-11-10T08:05:57;6.03;;;4.37;;
3747;SDS011;1889;50.058;8.688;2022-11-10T08:08:26;9.45;;;4.08;;
3747;SDS011;1889;50.058;8.688;2022-11-10T08:10:56;8.50;;;4.20;;
3747;SDS011;1889;50.058;8.688;2022-11-10T08:13:25;5.55;;;3.85;;
3747;SDS011;1889;50.058;8.688;2022-11-10T08:15:56;6.08;;;4.37;;
3747;SDS011;1889;50.058;8.688;2022-11-10T08:18:25;4.83;;;3.87;;
3747;SDS011;1889;50.058;8.688;2022-11-10T08:20:55;6.58;;;4.25;;
3747;SDS011;1889;50.058;8.688;2022-11-10T08:23:24;7.85;;;3.90;;
3747;SDS011;1889;50.058;8.688;2022-11-10T08:25:58;6.00;;;3.70;;
3747;SDS011;1889;50.058;8.688;2022-11-10T08:28:28;5.80;;;3.92;;
3747;SDS011;1889;50.058;8.688;2022-11-10T08:30:57;8.23;;;4.08;;
3747;SDS011;1889;50.058;8.688;2022-11-10T08:33:28;7.25;;;4.33;;
3747;SDS011;1889;50.058;8.688;2022-11-10T08:35:59;7.20;;;4.50;;
3747;SDS011;1889;50.058;8.688;2022-11-10T08:38:29;7.72;;;3.85;;
3747;SDS011;1889;50.058;8.688;2022-11-10T08:40:58;7.25;;;4.08;;
3747;SDS011;1889;50.058;8.688;2022-11-10T08:43:27;4.53;;;3.72;;
3747;SDS011;1889;50.058;8.688;2022-11-10T08:45:57;5.72;;;3.62;;
3747;SDS011;1889;50.058;8.688;2022-11-10T08:48:28;7.50;;;3.52;;
3747;SDS011;1889;50.058;8.688;2022-11-10T08:50:58;5.83;;;3.90;;
3747;SDS011;1889;50.058;8.688;2022-11-10T08:53:28;4.42;;;3.27;;
3747;SDS011;1889;50.058;8.688;2022-11-10T08:55:57;5.50;;;2.80;;
3747;SDS011;1889;50.058;8.688;2022-11-10T08:58:27;6.12;;;3.25;;
3747;SDS011;1889;50.058;8.688;2022-11-10T09:00:56;5.83;;;3.37;;
3747;SDS011;1889;50.058;8.688;2022-11-10T09:03:25;5.67;;;3.33;;
3747;SDS011;1889;50.058;8.688;2022-11-10T09:05:55;5.47;;;3.45;;
3747;SDS011;1889;50.058;8.688;2022-11-10T09:08:25;8.55;;;2.95;;
3747;SDS011;1889;50.058;8.688;2022-11-10T09:10:54;6.90;;;3.02;;
3747;SDS011;1889;50.058;8.688;2022-11-10T09:13:23;4.33;;;3.02;;
3747;SDS011;1889;50.058;8.688;2022-11-10T09:15:53;6.08;;;3.45;;
3747;SDS011;1889;50.058;8.688;2022-11-10T09:18:22;8.15;;;3.10;;
3747;SDS011;1889;50.058;8.688;2022-11-10T09:20:51;5.80;;;2.92;;
3747;SDS011;1889;50.058;8.688;2022-11-10T09:23:21;4.12;;;2.80;;
3747;SDS011;1889;50.058;8.688;2022-11-10T09:25:52;3.70;;;2.72;;
3747;SDS011;1889;50.058;8.688;2022-11-10T09:28:22;7.58;;;3.45;;
3747;SDS011;1889;50.058;8.688;2022-11-10T09:30:52;6.17;;;3.55;;
3747;SDS011;1889;50.058;8.688;2022-11-10T09:33:21;5.95;;;3.35;;
3747;SDS011;1889;50.058;8.688;2022-11-10T09:35:55;4.95;;;2.70;;
3747;SDS011;1889;50.058;8.688;2022-11-10T09:38:26;5.35;;;3.10;;
3747;SDS011;1889;50.058;8.688;2022-11-10T09:41:02;4.40;;;3.25;;
3747;SDS011;1889;50.058;8.688;2022-11-10T09:46:29;5.45;;;2.72;;
3747;SDS011;1889;50.058;8.688;2022-11-10T09:48:57;7.87;;;3.08;;
3747;SDS011;1889;50.058;8.688;2022-11-10T09:51:29;6.47;;;3.00;;
3747;SDS011;1889;50.058;8.688;2022-11-10T09:54:04;4.55;;;2.58;;
3747;SDS011;1889;50.058;8.688;2022-11-10T09:56:38;6.55;;;2.33;;
3747;SDS011;1889;50.058;8.688;2022-11-10T09:59:14;5.00;;;3.52;;
3747;SDS011;1889;50.058;8.688;2022-11-10T10:02:02;5.10;;;2.70;;
3747;SDS011;1889;50.058;8.688;2022-11-10T10:04:57;6.17;;;2.67;;
3747;SDS011;1889;50.058;8.688;2022-11-10T10:07:29;4.15;;;3.02;;
3747;SDS011;1889;50.058;8.688;2022-11-10T10:10:17;4.80;;;2.62;;
3747;SDS011;1889;50.058;8.688;2022-11-10T10:13:15;7.25;;;3.37;;
3747;SDS011;1889;50.058;8.688;2022-11-10T10:16:04;9.78;;;3.60;;
3747;SDS011;1889;50.058;8.688;2022-11-10T10:18:42;5.67;;;2.87;;
3747;SDS011;1889;50.058;8.688;2022-11-10T10:21:27;6.28;;;3.22;;
3747;SDS011;1889;50.058;8.688;2022-11-10T10:24:11;5.22;;;2.45;;
3747;SDS011;1889;50.058;8.688;2022-11-10T10:26:48;6.05;;;2.90;;
3747;SDS011;1889;50.058;8.688;2022-11-10T10:29:17;4.37;;;2.83;;
3747;SDS011;1889;50.058;8.688;2022-11-10T10:31:49;7.83;;;3.52;;
3747;SDS011;1889;50.058;8.688;2022-11-10T10:34:21;4.08;;;3.08;;
3747;SDS011;1889;50.058;8.688;2022-11-10T10:36:55;4.75;;;3.20;;
3747;SDS011;1889;50.058;8.688;2022-11-10T10:39:35;5.33;;;3.30;;
3747;SDS011;1889;50.058;8.688;2022-11-10T10:42:11;3.40;;;2.98;;
3747;SDS011;1889;50.058;8.688;2022-11-10T10:47:52;7.47;;;3.20;;
3747;SDS011;1889;50.058;8.688;2022-11-10T10:50:24;6.87;;;3.35;;
3747;SDS011;1889;50.058;8.688;2022-11-10T10:53:05;5.50;;;3.10;;
3747;SDS011;1889;50.058;8.688;2022-11-10T10:55:53;7.40;;;3.80;;
3747;SDS011;1889;50.058;8.688;2022-11-10T10:58:29;8.08;;;3.25;;
3747;SDS011;1889;50.058;8.688;2022-11-10T11:01:04;4.55;;;3.35;;
3747;SDS011;1889;50.058;8.688;2022-11-10T11:03:46;6.05;;;2.60;;
3747;SDS011;1889;50.058;8.688;2022-11-10T11:06:18;6.53;;;3.15;;
3747;SDS011;1889;50.058;8.688;2022-11-10T11:08:52;5.62;;;3.00;;
3747;SDS011;1889;50.058;8.688;2022-11-10T11:11:24;4.37;;;3.20;;
3747;SDS011;1889;50.058;8.688;2022-11-10T11:14:21;3.42;;;2.62;;
3747;SDS011;1889;50.058;8.688;2022-11-10T11:17:13;4.20;;;2.55;;
3747;SDS011;1889;50.058;8.688;2022-11-10T11:19:34;5.00;;;3.00;;
3747;SDS011;1889;50.058;8.688;2022-11-10T11:30:46;5.35;;;2.42;;
3747;SDS011;1889;50.058;8.688;2022-11-10T11:44:35;5.05;;;2.35;;
3747;SDS011;1889;50.058;8.688;2022-11-10T11:47:18;7.92;;;2.67;;
3747;SDS011;1889;50.058;8.688;2022-11-10T11:52:33;2.55;;;2.02;;
3747;SDS011;1889;50.058;8.688;2022-11-10T11:57:56;3.10;;;2.12;;
3747;SDS011;1889;50.058;8.688;2022-11-10T12:00:38;4.42;;;1.90;;
3747;SDS011;1889;50.058;8.688;2022-11-10T12:09:08;3.37;;;2.12;;
3747;SDS011;1889;50.058;8.688;2022-11-10T12:11:45;2.90;;;1.72;;
3747;SDS011;1889;50.058;8.688;2022-11-10T12:14:44;3.30;;;1.95;;
3747;SDS011;1889;50.058;8.688;2022-11-10T12:17:21;4.05;;;1.82;;
3747;SDS011;1889;50.058;8.688;2022-11-10T12:19:55;4.65;;;2.12;;
3747;SDS011;1889;50.058;8.688;2022-11-10T12:25:30;3.08;;;1.57;;
3747;SDS011;1889;50.058;8.688;2022-11-10T12:28:20;4.47;;;1.72;;
3747;SDS011;1889;50.058;8.688;2022-11-10T12:30:53;5.72;;;1.67;;
3747;SDS011;1889;50.058;8.688;2022-11-10T12:36:01;5.20;;;2.27;;
3747;SDS011;1889;50.058;8.688;2022-11-10T12:38:54;3.25;;;1.57;;
3747;SDS011;1889;50.058;8.688;2022-11-10T12:41:27;5.00;;;1.70;;
3747;SDS011;1889;50.058;8.688;2022-11-10T12:46:56;3.83;;;1.75;;
3747;SDS011;1889;50.058;8.688;2022-11-10T12:49:31;3.17;;;1.90;;
3747;SDS011;1889;50.058;8.688;2022-11-10T12:52:11;4.15;;;1.40;;
3747;SDS011;1889;50.058;8.688;2022-11-10T12:54:50;4.55;;;1.62;;
3747;SDS011;1889;50.058;8.688;2022-11-10T12:57:21;2.87;;;1.70;;
3747;SDS011;1889;50.058;8.688;2022-11-10T12:59:54;4.40;;;1.72;;
3747;SDS011;1889;50.058;8.688;2022-11-10T13:02:32;2.92;;;1.80;;
3747;SDS011;1889;50.058;8.688;2022-11-10T13:07:48;3.62;;;1.92;;
3747;SDS011;1889;50.058;8.688;2022-11-10T13:10:21;3.92;;;1.75;;
3747;SDS011;1889;50.058;8.688;2022-11-10T13:18:10;4.10;;;1.62;;
3747;SDS011;1889;50.058;8.688;2022-11-10T13:20:44;3.10;;;1.87;;
3747;SDS011;1889;50.058;8.688;2022-11-10T13:23:31;3.50;;;1.55;;
3747;SDS011;1889;50.058;8.688;2022-11-10T13:29:25;4.60;;;1.57;;
3747;SDS011;1889;50.058;8.688;2022-11-10T13:31:59;2.45;;;1.52;;
3747;SDS011;1889;50.058;8.688;2022-11-10T13:34:38;4.60;;;2.15;;
3747;SDS011;1889;50.058;8.688;2022-11-10T13:37:55;3.20;;;1.57;;
3747;SDS011;1889;50.058;8.688;2022-11-10T13:45:34;3.27;;;1.72;;
3747;SDS011;1889;50.058;8.688;2022-11-10T13:56:39;3.33;;;1.65;;
3747;SDS011;1889;50.058;8.688;2022-11-10T13:59:17;4.67;;;1.67;;
3747;SDS011;1889;50.058;8.688;2022-11-10T14:05:03;2.08;;;1.50;;
3747;SDS011;1889;50.058;8.688;2022-11-10T14:07:41;3.98;;;1.80;;
3747;SDS011;1889;50.058;8.688;2022-11-10T14:10:17;2.92;;;1.70;;
3747;SDS011;1889;50.058;8.688;2022-11-10T14:12:59;3.98;;;1.67;;
3747;SDS011;1889;50.058;8.688;2022-11-10T14:15:45;5.50;;;1.90;;
3747;SDS011;1889;50.058;8.688;2022-11-10T14:18:10;4.28;;;1.85;;
3747;SDS011;1889;50.058;8.688;2022-11-10T14:20:51;4.15;;;1.67;;
3747;SDS011;1889;50.058;8.688;2022-11-10T14:23:44;3.95;;;1.45;;
3747;SDS011;1889;50.058;8.688;2022-11-10T14:27:06;3.85;;;1.60;;
3747;SDS011;1889;50.058;8.688;2022-11-10T14:28:53;1.75;;;1.60;;
3747;SDS011;1889;50.058;8.688;2022-11-10T14:31:23;6.03;;;1.40;;
3747;SDS011;1889;50.058;8.688;2022-11-10T14:33:54;2.12;;;1.52;;
3747;SDS011;1889;50.058;8.688;2022-11-10T14:36:25;4.53;;;1.82;;
3747;SDS011;1889;50.058;8.688;2022-11-10T14:38:54;2.02;;;1.72;;
3747;SDS011;1889;50.058;8.688;2022-11-10T14:41:25;3.22;;;1.60;;
3747;SDS011;1889;50.058;8.688;2022-11-10T14:43:59;2.62;;;2.08;;
3747;SDS011;1889;50.058;8.688;2022-11-10T14:46:33;1.95;;;1.37;;
3747;SDS011;1889;50.058;8.688;2022-11-10T14:49:02;2.85;;;1.67;;
3747;SDS011;1889;50.058;8.688;2022-11-10T14:51:32;2.47;;;1.47;;
3747;SDS011;1889;50.058;8.688;2022-11-10T14:54:02;1.67;;;1.42;;
3747;SDS011;1889;50.058;8.688;2022-11-10T14:56:36;3.50;;;1.95;;
3747;SDS011;1889;50.058;8.688;2022-11-10T14:59:09;2.30;;;1.60;;
3747;SDS011;1889;50.058;8.688;2022-11-10T15:01:46;2.62;;;1.60;;
3747;SDS011;1889;50.058;8.688;2022-11-10T15:04:27;2.77;;;1.20;;
3747;SDS011;1889;50.058;8.688;2022-11-10T15:06:59;4.95;;;1.80;;
3747;SDS011;1889;50.058;8.688;2022-11-10T15:09:30;3.90;;;1.90;;
3747;SDS011;1889;50.058;8.688;2022-11-10T15:12:18;1.77;;;1.30;;
3747;SDS011;1889;50.058;8.688;2022-11-10T15:14:42;2.40;;;1.52;;
3747;SDS011;1889;50.058;8.688;2022-11-10T15:17:12;2.92;;;1.50;;
3747;SDS011;1889;50.058;8.688;2022-11-10T15:22:21;2.50;;;2.00;;
3747;SDS011;1889;50.058;8.688;2022-11-10T15:24:59;5.03;;;1.77;;
3747;SDS011;1889;50.058;8.688;2022-11-10T15:27:30;4.28;;;2.52;;
3747;SDS011;1889;50.058;8.688;2022-11-10T15:30:00;3.83;;;2.45;;
3747;SDS011;1889;50.058;8.688;2022-11-10T15:32:39;3.42;;;2.10;;
3747;SDS011;1889;50.058;8.688;2022-11-10T15:41:04;3.87;;;2.45;;
3747;SDS011;1889;50.058;8.688;2022-11-10T15:43:38;5.55;;;2.27;;
3747;SDS011;1889;50.058;8.688;2022-11-10T15:46:09;5.20;;;2.87;;
3747;SDS011;1889;50.058;8.688;2022-11-10T15:48:45;3.50;;;2.00;;
3747;SDS011;1889;50.058;8.688;2022-11-10T15:51:17;4.03;;;2.02;;
3747;SDS011;1889;50.058;8.688;2022-11-10T15:53:47;3.62;;;2.15;;
3747;SDS011;1889;50.058;8.688;2022-11-10T15:56:20;3.45;;;2.20;;
3747;SDS011;1889;50.058;8.688;2022-11-10T15:58:51;4.87;;;1.98;;
3747;SDS011;1889;50.058;8.688;2022-11-10T16:01:25;3.35;;;1.90;;
3747;SDS011;1889;50.058;8.688;2022-11-10T16:03:54;5.17;;;2.17;;
3747;SDS011;1889;50.058;8.688;2022-11-10T16:06:24;4.78;;;2.20;;
3747;SDS011;1889;50.058;8.688;2022-11-10T16:08:53;3.50;;;2.10;;
3747;SDS011;1889;50.058;8.688;2022-11-10T16:11:23;4.83;;;2.42;;
3747;SDS011;1889;50.058;8.688;2022-11-10T16:13:52;3.40;;;2.15;;
3747;SDS011;1889;50.058;8.688;2022-11-10T16:16:23;4.62;;;1.98;;
3747;SDS011;1889;50.058;8.688;2022-11-10T16:18:52;4.92;;;2.15;;
3747;SDS011;1889;50.058;8.688;2022-11-10T16:21:23;3.85;;;2.50;;
3747;SDS011;1889;50.058;8.688;2022-11-10T16:23:52;3.65;;;3.00;;
3747;SDS011;1889;50.058;8.688;2022-11-10T16:26:22;4.05;;;1.87;;
3747;SDS011;1889;50.058;8.688;2022-11-10T16:28:54;5.65;;;2.40;;
3747;SDS011;1889;50.058;8.688;2022-11-10T16:31:24;2.65;;;1.98;;
3747;SDS011;1889;50.058;8.688;2022-11-10T16:33:55;3.08;;;2.08;;
3747;SDS011;1889;50.058;8.688;2022-11-10T16:36:25;5.20;;;2.47;;
3747;SDS011;1889;50.058;8.688;2022-11-10T16:38:57;7.05;;;2.77;;
3747;SDS011;1889;50.058;8.688;2022-11-10T16:41:32;5.35;;;2.50;;
3747;SDS011;1889;50.058;8.688;2022-11-10T16:44:01;7.75;;;3.08;;
3747;SDS011;1889;50.058;8.688;2022-11-10T16:46:30;6.15;;;2.90;;
3747;SDS011;1889;50.058;8.688;2022-11-10T16:49:02;5.85;;;2.70;;
3747;SDS011;1889;50.058;8.688;2022-11-10T16:51:36;3.98;;;2.40;;
3747;SDS011;1889;50.058;8.688;2022-11-10T16:54:08;8.28;;;3.55;;
3747;SDS011;1889;50.058;8.688;2022-11-10T16:56:38;5.75;;;3.00;;
3747;SDS011;1889;50.058;8.688;2022-11-10T16:59:07;4.72;;;2.95;;
3747;SDS011;1889;50.058;8.688;2022-11-10T17:01:37;4.50;;;2.80;;
3747;SDS011;1889;50.058;8.688;2022-11-10T17:04:11;4.83;;;3.17;;
3747;SDS011;1889;50.058;8.688;2022-11-10T17:06:41;5.37;;;3.50;;
3747;SDS011;1889;50.058;8.688;2022-11-10T17:09:18;8.48;;;3.80;;